Time;durP1;ratioP1;P1;durP2;ratioP2;P2;SDS_P1;SDS_P2;PMS_P1;PMS_P2;Temp;Humidity;BMP_temperature;BMP_pressure;BME280_temperature;BME280_humidity;BME280_pressure;Samples;Min_cycle;Max_cycle;Signal;HPM_P1;HPM_P2
2021/05/25 00:00:05;;;;;;;2.33;1.05;;;;;;;;;;1468492;40;20420;-82
2021/05/25 00:01:06;;;;;;;1.85;1.10;;;;;;;;;;1465427;40;20710;-82
2021/05/25 00:02:08;;;;;;;3.53;1.30;;;;;;;;;;1462443;40;20495;-81
2021/05/25 00:03:10;;;;;;;7.13;1.70;;;;;;;;;;1466312;40;20400;-82
2021/05/25 00:04:12;;;;;;;3.17;1.10;;;;;;;;;;1465969;40;20414;-82
2021/05/25 00:05:21;;;;;;;6.28;1.60;;;;;;;;;;1466200;40;20418;-82
2021/05/25 00:06:22;;;;;;;2.83;1.23;;;;;;;;;;1464357;40;20448;-81
2021/05/25 00:07:24;;;;;;;5.80;1.50;;;;;;;;;;1457941;40;20569;-83
2021/05/25 00:08:26;;;;;;;4.07;1.50;;;;;;;;;;1458299;40;20426;-82
2021/05/25 00:09:28;;;;;;;4.65;1.40;;;;;;;;;;1461985;40;20640;-82
2021/05/25 00:10:31;;;;;;;3.83;1.58;;;;;;;;;;1455777;40;20703;-82
2021/05/25 00:11:33;;;;;;;5.85;1.77;;;;;;;;;;1457724;40;20419;-82
2021/05/25 00:12:35;;;;;;;3.80;1.50;;;;;;;;;;1459845;40;20836;-82
2021/05/25 00:13:38;;;;;;;7.40;1.92;;;;;;;;;;1458011;40;20422;-82
2021/05/25 00:14:40;;;;;;;6.22;2.38;;;;;;;;;;1463402;40;20428;-82
2021/05/25 00:15:43;;;;;;;4.50;2.10;;;;;;;;;;1457699;40;20732;-82
2021/05/25 00:16:46;;;;;;;4.20;2.17;;;;;;;;;;1453495;40;20816;-82
2021/05/25 00:17:49;;;;;;;4.93;1.90;;;;;;;;;;1458231;40;20429;-84
2021/05/25 00:18:52;;;;;;;4.85;2.00;;;;;;;;;;1465622;40;20419;-83
2021/05/25 00:19:53;;;;;;;4.63;2.13;;;;;;;;;;1465557;40;20422;-83
2021/05/25 00:20:55;;;;;;;4.22;1.98;;;;;;;;;;1464444;40;20529;-82
2021/05/25 00:21:57;;;;;;;6.07;1.90;;;;;;;;;;1461875;40;20455;-82
2021/05/25 00:22:58;;;;;;;6.47;2.80;;;;;;;;;;1460867;40;20913;-82
2021/05/25 00:24:00;;;;;;;6.07;3.10;;;;;;;;;;1446041;41;20564;-82
2021/05/25 00:25:02;;;;;;;6.10;2.90;;;;;;;;;;1450752;40;20427;-83
2021/05/25 00:26:04;;;;;;;9.15;2.55;;;;;;;;;;1461863;40;20719;-83
2021/05/25 00:27:07;;;;;;;3.20;2.22;;;;;;;;;;1461646;40;20425;-83
2021/05/25 00:28:09;;;;;;;6.87;3.00;;;;;;;;;;1466276;40;20666;-83
2021/05/25 00:29:10;;;;;;;8.00;2.63;;;;;;;;;;1462407;40;20450;-83
2021/05/25 00:30:16;;;;;;;6.40;2.63;;;;;;;;;;1463080;40;20431;-83
2021/05/25 00:31:18;;;;;;;7.63;3.08;;;;;;;;;;1471360;40;20391;-83
2021/05/25 00:32:19;;;;;;;4.85;2.88;;;;;;;;;;1463039;40;20419;-82
2021/05/25 00:33:21;;;;;;;4.32;2.78;;;;;;;;;;1461048;40;20426;-82
2021/05/25 00:34:23;;;;;;;6.88;3.45;;;;;;;;;;1468598;40;20427;-82
2021/05/25 00:35:26;;;;;;;8.13;3.38;;;;;;;;;;1460899;40;20430;-82
2021/05/25 00:36:28;;;;;;;8.60;2.80;;;;;;;;;;1455949;40;20400;-82
2021/05/25 00:37:30;;;;;;;4.60;2.92;;;;;;;;;;1459808;40;20488;-81
2021/05/25 00:38:31;;;;;;;5.78;3.50;;;;;;;;;;1462727;40;20410;-81
2021/05/25 00:39:33;;;;;;;5.32;2.83;;;;;;;;;;1461772;40;20409;-81
2021/05/25 00:40:35;;;;;;;8.05;2.72;;;;;;;;;;1460209;40;20446;-82
2021/05/25 00:41:37;;;;;;;7.82;3.40;;;;;;;;;;1463573;40;20421;-81
2021/05/25 00:42:41;;;;;;;7.97;2.85;;;;;;;;;;1463618;40;20813;-82
2021/05/25 00:43:42;;;;;;;5.63;2.58;;;;;;;;;;1450327;40;20414;-82
2021/05/25 00:44:44;;;;;;;5.35;2.33;;;;;;;;;;1453425;40;20420;-83
2021/05/25 00:45:46;;;;;;;4.63;2.15;;;;;;;;;;1453729;40;20424;-82
2021/05/25 00:46:47;;;;;;;4.20;2.42;;;;;;;;;;1454429;40;20767;-83
2021/05/25 00:47:49;;;;;;;5.78;2.40;;;;;;;;;;1457909;40;20454;-84
2021/05/25 00:48:51;;;;;;;5.15;1.92;;;;;;;;;;1458136;40;20545;-84
2021/05/25 00:49:53;;;;;;;6.90;2.42;;;;;;;;;;1466110;40;20407;-82
2021/05/25 00:50:55;;;;;;;9.90;3.17;;;;;;;;;;1457142;40;20521;-82
2021/05/25 00:51:57;;;;;;;7.00;1.80;;;;;;;;;;1449933;40;20427;-81
2021/05/25 00:53:01;;;;;;;5.57;2.72;;;;;;;;;;1453838;40;20424;-82
2021/05/25 00:54:03;;;;;;;7.10;2.55;;;;;;;;;;1457717;40;20521;-81
2021/05/25 00:55:05;;;;;;;6.60;2.40;;;;;;;;;;1461183;40;20799;-81
2021/05/25 00:56:07;;;;;;;5.03;1.90;;;;;;;;;;1460974;40;21073;-82
2021/05/25 00:57:09;;;;;;;7.03;2.17;;;;;;;;;;1462142;40;20476;-81
2021/05/25 00:58:11;;;;;;;5.38;2.10;;;;;;;;;;1465750;40;20435;-81
2021/05/25 00:59:13;;;;;;;5.95;2.05;;;;;;;;;;1461350;40;20421;-81
2021/05/25 01:00:37;;;;;;;4.35;1.98;;;;;;;;;;1453231;40;20481;-81
2021/05/25 01:01:39;;;;;;;5.53;1.98;;;;;;;;;;1459452;40;20414;-80
2021/05/25 01:02:41;;;;;;;7.80;2.25;;;;;;;;;;1465724;40;20437;-81
2021/05/25 01:03:43;;;;;;;7.40;2.60;;;;;;;;;;1465058;40;20426;-81
2021/05/25 01:04:46;;;;;;;7.25;2.40;;;;;;;;;;1465776;40;20414;-81
2021/05/25 01:05:49;;;;;;;5.63;2.28;;;;;;;;;;1453361;40;20419;-83
2021/05/25 01:06:50;;;;;;;4.10;1.50;;;;;;;;;;1446310;40;20444;-82
2021/05/25 01:07:53;;;;;;;4.55;1.77;;;;;;;;;;1457242;40;20422;-81
2021/05/25 01:08:58;;;;;;;8.00;2.15;;;;;;;;;;1457472;40;20411;-81
2021/05/25 01:10:00;;;;;;;5.70;1.45;;;;;;;;;;1449850;40;20425;-81
2021/05/25 01:11:13;;;;;;;9.77;2.13;;;;;;;;;;1458219;40;20643;-82
2021/05/25 01:12:15;;;;;;;5.03;1.70;;;;;;;;;;1452381;40;21518;-81
2021/05/25 01:13:22;;;;;;;5.68;2.38;;;;;;;;;;1451302;40;20497;-81
2021/05/25 01:14:25;;;;;;;7.40;2.00;;;;;;;;;;1461565;40;20424;-81
2021/05/25 01:15:27;;;;;;;5.53;1.50;;;;;;;;;;1465331;40;20414;-82
2021/05/25 01:16:29;;;;;;;7.90;1.83;;;;;;;;;;1462409;40;20417;-81
2021/05/25 01:17:32;;;;;;;6.63;1.58;;;;;;;;;;1457911;40;20410;-83
2021/05/25 01:18:34;;;;;;;5.95;2.28;;;;;;;;;;1458159;40;20410;-81
2021/05/25 01:19:35;;;;;;;6.85;2.10;;;;;;;;;;1457277;40;20429;-82
2021/05/25 01:20:39;;;;;;;5.63;1.95;;;;;;;;;;1457299;40;20677;-81
2021/05/25 01:21:41;;;;;;;7.50;1.92;;;;;;;;;;1452345;40;20401;-81
2021/05/25 01:22:42;;;;;;;5.45;2.10;;;;;;;;;;1449961;40;20410;-81
2021/05/25 01:23:44;;;;;;;5.68;2.10;;;;;;;;;;1456015;40;20895;-81
2021/05/25 01:24:45;;;;;;;7.22;2.08;;;;;;;;;;1465193;40;20412;-82
2021/05/25 01:25:48;;;;;;;6.25;2.08;;;;;;;;;;1453566;40;20424;-82
2021/05/25 01:26:49;;;;;;;8.45;2.13;;;;;;;;;;1446230;40;20567;-83
2021/05/25 01:28:04;;;;;;;8.82;2.65;;;;;;;;;;1453805;40;20408;-82
2021/05/25 01:29:05;;;;;;;5.18;2.10;;;;;;;;;;1454352;40;20666;-81
2021/05/25 01:30:09;;;;;;;6.18;1.80;;;;;;;;;;1457403;40;20502;-80
2021/05/25 01:31:18;;;;;;;7.03;2.70;;;;;;;;;;1462289;40;20412;-80
2021/05/25 01:32:19;;;;;;;7.63;2.00;;;;;;;;;;1461419;40;20449;-80
2021/05/25 01:33:24;;;;;;;6.82;1.90;;;;;;;;;;1461746;40;20469;-80
2021/05/25 01:34:26;;;;;;;6.75;2.30;;;;;;;;;;1461007;40;20421;-81
2021/05/25 01:35:29;;;;;;;5.78;1.73;;;;;;;;;;1457256;40;20419;-80
2021/05/25 01:36:30;;;;;;;4.75;2.20;;;;;;;;;;1457470;40;20427;-80
2021/05/25 01:37:32;;;;;;;10.10;2.25;;;;;;;;;;1456990;40;20399;-80
2021/05/25 01:38:35;;;;;;;5.25;2.30;;;;;;;;;;1457741;40;20439;-81
2021/05/25 01:39:37;;;;;;;4.55;2.13;;;;;;;;;;1461731;40;20429;-81
2021/05/25 01:40:39;;;;;;;6.68;2.00;;;;;;;;;;1457023;40;20863;-82
2021/05/25 01:41:42;;;;;;;9.82;2.95;;;;;;;;;;1458193;40;20519;-82
2021/05/25 01:42:44;;;;;;;9.23;2.38;;;;;;;;;;1462431;40;20424;-82
2021/05/25 01:43:45;;;;;;;8.55;2.83;;;;;;;;;;1457482;40;20411;-81
2021/05/25 01:44:48;;;;;;;5.97;3.03;;;;;;;;;;1460954;40;20736;-83
2021/05/25 01:45:50;;;;;;;9.70;2.35;;;;;;;;;;1457209;40;20419;-83
2021/05/25 01:46:52;;;;;;;8.55;3.05;;;;;;;;;;1453664;40;20903;-81
2021/05/25 01:47:55;;;;;;;6.82;3.20;;;;;;;;;;1462082;40;20416;-80
2021/05/25 01:48:57;;;;;;;5.57;3.28;;;;;;;;;;1453359;40;20417;-80
2021/05/25 01:50:13;;;;;;;10.60;3.03;;;;;;;;;;1452913;40;20434;-80
2021/05/25 01:51:15;;;;;;;10.50;3.00;;;;;;;;;;1454072;40;20662;-82
2021/05/25 01:52:19;;;;;;;6.85;2.92;;;;;;;;;;1450545;40;20443;-80
2021/05/25 01:53:28;;;;;;;7.50;2.83;;;;;;;;;;1445946;40;20954;-81
2021/05/25 01:54:30;;;;;;;6.70;3.15;;;;;;;;;;1454776;40;20738;-81
2021/05/25 01:55:51;;;;;;;6.50;3.30;;;;;;;;;;1457413;40;20426;-81
2021/05/25 01:56:53;;;;;;;7.75;3.65;;;;;;;;;;1454898;40;20411;-82
2021/05/25 01:58:05;;;;;;;7.03;3.03;;;;;;;;;;1461643;40;20480;-83
2021/05/25 01:59:06;;;;;;;8.07;3.38;;;;;;;;;;1460479;40;20434;-83
2021/05/25 02:00:08;;;;;;;8.63;3.22;;;;;;;;;;1461826;40;20424;-83
2021/05/25 02:01:11;;;;;;;7.25;3.95;;;;;;;;;;1461226;40;20436;-85
2021/05/25 02:02:13;;;;;;;10.70;3.42;;;;;;;;;;1453764;40;20474;-83
2021/05/25 02:03:15;;;;;;;7.65;4.00;;;;;;;;;;1453950;40;20476;-85
2021/05/25 02:04:16;;;;;;;9.40;4.13;;;;;;;;;;1453974;40;20423;-82
2021/05/25 02:05:18;;;;;;;8.40;3.80;;;;;;;;;;1462654;40;20401;-82
2021/05/25 02:06:20;;;;;;;10.13;4.00;;;;;;;;;;1453778;40;20802;-83
2021/05/25 02:07:21;;;;;;;8.18;3.65;;;;;;;;;;1454491;40;20834;-83
2021/05/25 02:08:25;;;;;;;6.78;3.90;;;;;;;;;;1461535;40;20425;-83
2021/05/25 02:09:27;;;;;;;6.03;3.78;;;;;;;;;;1458760;40;20442;-83
2021/05/25 02:10:34;;;;;;;10.48;4.50;;;;;;;;;;1466093;40;20411;-82
2021/05/25 02:11:36;;;;;;;9.20;3.97;;;;;;;;;;1470034;40;20723;-83
2021/05/25 02:12:39;;;;;;;8.70;3.97;;;;;;;;;;1464447;40;20401;-82
2021/05/25 02:13:41;;;;;;;10.25;4.63;;;;;;;;;;1458176;40;20705;-83
2021/05/25 02:14:43;;;;;;;6.95;3.92;;;;;;;;;;1445487;41;20419;-82
2021/05/25 02:15:49;;;;;;;11.30;4.82;;;;;;;;;;1450715;40;20406;-83
2021/05/25 02:16:51;;;;;;;8.38;4.10;;;;;;;;;;1461647;40;20795;-85
2021/05/25 02:17:52;;;;;;;8.35;4.60;;;;;;;;;;1462581;40;20409;-84
2021/05/25 02:18:55;;;;;;;8.25;4.20;;;;;;;;;;1466176;40;20419;-84
2021/05/25 02:19:57;;;;;;;10.38;4.03;;;;;;;;;;1457846;40;20429;-83
2021/05/25 02:21:03;;;;;;;11.45;4.18;;;;;;;;;;1462071;40;20404;-82
2021/05/25 02:22:05;;;;;;;8.10;3.97;;;;;;;;;;1465681;40;20415;-82
2021/05/25 02:23:07;;;;;;;9.43;4.35;;;;;;;;;;1462688;40;20432;-83
2021/05/25 02:24:09;;;;;;;7.88;4.45;;;;;;;;;;1462113;40;21032;-84
2021/05/25 02:25:11;;;;;;;8.05;4.32;;;;;;;;;;1457773;40;20528;-82
2021/05/25 02:26:13;;;;;;;9.40;4.00;;;;;;;;;;1454268;40;20416;-84
2021/05/25 02:27:15;;;;;;;10.68;4.63;;;;;;;;;;1453464;40;20462;-83
2021/05/25 02:28:17;;;;;;;6.30;3.95;;;;;;;;;;1458461;40;20409;-82
2021/05/25 02:29:20;;;;;;;9.45;4.20;;;;;;;;;;1465656;40;20434;-81
2021/05/25 02:30:22;;;;;;;8.48;4.45;;;;;;;;;;1465873;40;20820;-83
2021/05/25 02:31:24;;;;;;;7.57;4.10;;;;;;;;;;1466299;40;20391;-81
2021/05/25 02:32:27;;;;;;;9.98;4.20;;;;;;;;;;1454072;40;20431;-83
2021/05/25 02:33:29;;;;;;;10.25;5.00;;;;;;;;;;1450258;40;20505;-82
2021/05/25 02:34:31;;;;;;;10.30;4.40;;;;;;;;;;1457475;40;20442;-83
2021/05/25 02:35:37;;;;;;;5.18;4.28;;;;;;;;;;1458232;40;20844;-82
2021/05/25 02:36:38;;;;;;;8.02;3.97;;;;;;;;;;1461775;40;20417;-83
2021/05/25 02:37:40;;;;;;;8.95;4.25;;;;;;;;;;1466620;40;20419;-82
2021/05/25 02:38:42;;;;;;;8.68;4.35;;;;;;;;;;1458379;40;20415;-82
2021/05/25 02:39:43;;;;;;;11.52;5.40;;;;;;;;;;1459341;40;20409;-83
2021/05/25 02:40:47;;;;;;;11.50;4.60;;;;;;;;;;1458286;40;20435;-82
2021/05/25 02:41:49;;;;;;;7.90;4.53;;;;;;;;;;1454626;40;20431;-84
2021/05/25 02:42:51;;;;;;;9.63;4.68;;;;;;;;;;1463425;40;20401;-85
2021/05/25 02:43:54;;;;;;;7.07;4.20;;;;;;;;;;1457718;40;20494;-83
2021/05/25 02:44:55;;;;;;;7.70;4.80;;;;;;;;;;1462263;40;20413;-82
2021/05/25 02:45:58;;;;;;;9.35;4.60;;;;;;;;;;1457967;40;20418;-82
2021/05/25 02:47:00;;;;;;;9.98;4.90;;;;;;;;;;1458266;40;20470;-81
2021/05/25 02:48:03;;;;;;;8.65;5.13;;;;;;;;;;1462075;40;20816;-80
2021/05/25 02:49:05;;;;;;;11.85;5.07;;;;;;;;;;1459633;40;20546;-81
2021/05/25 02:50:07;;;;;;;9.57;5.10;;;;;;;;;;1461820;40;20675;-81
2021/05/25 02:51:09;;;;;;;5.57;4.15;;;;;;;;;;1458004;40;20587;-81
2021/05/25 02:52:11;;;;;;;9.18;4.63;;;;;;;;;;1449343;40;20972;-81
2021/05/25 02:53:14;;;;;;;8.65;4.95;;;;;;;;;;1461050;40;20447;-81
2021/05/25 02:54:15;;;;;;;11.00;5.13;;;;;;;;;;1467175;40;20436;-80
2021/05/25 02:55:25;;;;;;;10.32;4.85;;;;;;;;;;1463058;40;20466;-82
2021/05/25 02:56:26;;;;;;;8.35;4.60;;;;;;;;;;1462932;40;20418;-83
2021/05/25 02:57:28;;;;;;;8.70;4.40;;;;;;;;;;1463333;40;20423;-84
2021/05/25 02:58:29;;;;;;;11.80;5.28;;;;;;;;;;1453975;40;20434;-81
2021/05/25 02:59:32;;;;;;;7.28;4.10;;;;;;;;;;1455671;40;20432;-81
2021/05/25 03:00:38;;;;;;;8.02;4.60;;;;;;;;;;1455349;40;20695;-80
2021/05/25 03:01:40;;;;;;;9.70;4.70;;;;;;;;;;1455592;40;20424;-81
2021/05/25 03:02:42;;;;;;;12.43;4.47;;;;;;;;;;1462813;40;20447;-81
2021/05/25 03:03:43;;;;;;;9.23;4.57;;;;;;;;;;1458126;40;20410;-81
2021/05/25 03:04:45;;;;;;;7.45;4.57;;;;;;;;;;1463714;40;20705;-81
2021/05/25 03:05:47;;;;;;;6.30;4.13;;;;;;;;;;1466278;40;20717;-82
2021/05/25 03:06:49;;;;;;;8.02;4.13;;;;;;;;;;1458844;40;20410;-82
2021/05/25 03:07:56;;;;;;;6.13;4.63;;;;;;;;;;1454317;40;20733;-83
2021/05/25 03:08:58;;;;;;;8.75;3.90;;;;;;;;;;1454048;40;20447;-81
2021/05/25 03:09:59;;;;;;;8.27;4.30;;;;;;;;;;1457805;40;20713;-81
2021/05/25 03:11:01;;;;;;;8.77;3.85;;;;;;;;;;1454246;40;20393;-82
2021/05/25 03:12:04;;;;;;;9.10;4.85;;;;;;;;;;1458020;40;20707;-81
2021/05/25 03:13:06;;;;;;;8.17;4.73;;;;;;;;;;1457750;40;20410;-84
2021/05/25 03:14:09;;;;;;;7.13;4.07;;;;;;;;;;1453809;40;20564;-82
2021/05/25 03:15:14;;;;;;;9.68;4.40;;;;;;;;;;1453930;40;20432;-81
2021/05/25 03:16:16;;;;;;;5.50;4.32;;;;;;;;;;1458055;40;20415;-81
2021/05/25 03:17:21;;;;;;;7.07;4.05;;;;;;;;;;1460042;40;20412;-81
2021/05/25 03:18:26;;;;;;;7.30;4.07;;;;;;;;;;1454240;40;20787;-80
2021/05/25 03:19:28;;;;;;;9.38;4.40;;;;;;;;;;1455285;40;20776;-80
2021/05/25 03:20:33;;;;;;;6.72;4.38;;;;;;;;;;1458664;40;20419;-81
2021/05/25 03:21:34;;;;;;;7.18;4.28;;;;;;;;;;1462258;40;20412;-81
2021/05/25 03:22:37;;;;;;;7.10;4.28;;;;;;;;;;1462463;40;20425;-81
2021/05/25 03:23:39;;;;;;;9.63;5.13;;;;;;;;;;1458157;40;20430;-81
2021/05/25 03:24:41;;;;;;;7.50;5.15;;;;;;;;;;1457767;40;20427;-82
2021/05/25 03:25:44;;;;;;;9.25;4.90;;;;;;;;;;1458278;40;20431;-81
2021/05/25 03:26:45;;;;;;;7.15;4.57;;;;;;;;;;1458619;40;20421;-81
2021/05/25 03:27:48;;;;;;;7.15;4.25;;;;;;;;;;1463511;40;20413;-81
2021/05/25 03:28:49;;;;;;;9.35;4.63;;;;;;;;;;1463351;40;20401;-83
2021/05/25 03:29:51;;;;;;;8.35;4.90;;;;;;;;;;1450635;41;20430;-83
2021/05/25 03:30:53;;;;;;;10.95;4.72;;;;;;;;;;1450708;40;20422;-84
2021/05/25 03:31:55;;;;;;;7.65;4.63;;;;;;;;;;1458164;40;20422;-81
2021/05/25 03:32:58;;;;;;;7.60;4.40;;;;;;;;;;1458266;40;20415;-81
2021/05/25 03:34:00;;;;;;;6.95;5.18;;;;;;;;;;1465582;40;20404;-81
2021/05/25 03:35:05;;;;;;;6.35;4.82;;;;;;;;;;1466096;40;20428;-81
2021/05/25 03:36:08;;;;;;;7.40;4.93;;;;;;;;;;1462417;40;20421;-82
2021/05/25 03:37:10;;;;;;;6.45;4.53;;;;;;;;;;1461399;40;21032;-80
2021/05/25 03:38:12;;;;;;;6.50;4.47;;;;;;;;;;1458183;40;20414;-81
2021/05/25 03:39:13;;;;;;;5.90;4.82;;;;;;;;;;1463022;40;20819;-82
2021/05/25 03:40:16;;;;;;;20.00;6.07;;;;;;;;;;1458972;40;20436;-80
2021/05/25 03:41:17;;;;;;;7.10;5.10;;;;;;;;;;1455298;40;20415;-81
2021/05/25 03:42:19;;;;;;;5.70;4.65;;;;;;;;;;1457902;40;20494;-81
2021/05/25 03:43:21;;;;;;;7.30;4.82;;;;;;;;;;1456958;40;20406;-81
2021/05/25 03:44:22;;;;;;;6.15;4.45;;;;;;;;;;1466460;40;20434;-81
2021/05/25 03:45:25;;;;;;;7.47;5.00;;;;;;;;;;1462277;40;20417;-80
2021/05/25 03:46:27;;;;;;;9.65;4.72;;;;;;;;;;1458679;40;20407;-81
2021/05/25 03:47:28;;;;;;;7.28;4.93;;;;;;;;;;1462253;40;20505;-81
2021/05/25 03:48:30;;;;;;;7.22;4.90;;;;;;;;;;1458041;40;20426;-81
2021/05/25 03:49:32;;;;;;;9.43;4.03;;;;;;;;;;1454140;40;20431;-81
2021/05/25 03:50:34;;;;;;;8.18;4.63;;;;;;;;;;1453758;40;20417;-81
2021/05/25 03:51:37;;;;;;;6.63;4.80;;;;;;;;;;1460368;40;20552;-82
2021/05/25 03:52:42;;;;;;;9.90;4.22;;;;;;;;;;1465870;40;20430;-81
2021/05/25 03:53:44;;;;;;;9.38;4.35;;;;;;;;;;1459772;40;20659;-81
2021/05/25 03:54:53;;;;;;;9.35;4.80;;;;;;;;;;1462392;40;20401;-81
2021/05/25 03:56:15;;;;;;;8.63;4.60;;;;;;;;;;1457742;40;20405;-81
2021/05/25 03:59:50;;;;;;;9.35;4.50;;;;;;;;;;1460008;40;20386;-83
2021/05/25 04:00:53;;;;;;;8.02;4.80;;;;;;;;;;1462165;40;20405;-82
2021/05/25 04:01:57;;;;;;;12.00;4.95;;;;;;;;;;1453877;40;20529;-80
2021/05/25 04:02:59;;;;;;;7.25;4.03;;;;;;;;;;1453916;40;20416;-81
2021/05/25 04:04:00;;;;;;;6.82;4.35;;;;;;;;;;1457378;40;20450;-80
2021/05/25 04:05:05;;;;;;;8.43;4.55;;;;;;;;;;1453710;40;20416;-81
2021/05/25 04:06:07;;;;;;;10.25;5.10;;;;;;;;;;1457553;40;20875;-82
2021/05/25 04:07:10;;;;;;;7.13;4.43;;;;;;;;;;1451386;40;20825;-81
2021/05/25 04:08:13;;;;;;;9.52;4.93;;;;;;;;;;1461855;40;20429;-81
2021/05/25 04:09:15;;;;;;;12.20;5.07;;;;;;;;;;1465926;40;20431;-81
2021/05/25 04:10:16;;;;;;;6.35;4.43;;;;;;;;;;1465941;40;20415;-81
2021/05/25 04:11:18;;;;;;;9.17;4.43;;;;;;;;;;1461682;40;20971;-82
2021/05/25 04:12:20;;;;;;;14.45;5.22;;;;;;;;;;1458159;40;20817;-81
2021/05/25 04:13:22;;;;;;;6.63;4.13;;;;;;;;;;1457915;40;20430;-81
2021/05/25 04:14:23;;;;;;;8.15;4.05;;;;;;;;;;1449941;41;20450;-81
2021/05/25 04:15:25;;;;;;;7.57;4.38;;;;;;;;;;1449407;40;20585;-80
2021/05/25 04:16:27;;;;;;;7.82;4.25;;;;;;;;;;1450022;40;20422;-82
2021/05/25 04:17:30;;;;;;;8.32;4.03;;;;;;;;;;1461318;40;20472;-81
2021/05/25 04:18:32;;;;;;;9.13;4.32;;;;;;;;;;1457653;40;20422;-81
2021/05/25 04:19:33;;;;;;;8.50;4.15;;;;;;;;;;1453182;40;20409;-81
2021/05/25 04:20:35;;;;;;;6.50;3.67;;;;;;;;;;1465360;40;20414;-81
2021/05/25 04:21:37;;;;;;;6.18;3.80;;;;;;;;;;1461585;40;20865;-82
2021/05/25 04:22:39;;;;;;;7.10;3.60;;;;;;;;;;1457842;40;20704;-82
2021/05/25 04:23:41;;;;;;;7.93;3.22;;;;;;;;;;1457473;40;20418;-81
2021/05/25 04:24:42;;;;;;;6.47;3.80;;;;;;;;;;1457611;40;20418;-82
2021/05/25 04:25:44;;;;;;;6.65;3.70;;;;;;;;;;1466933;40;20414;-83
2021/05/25 04:26:46;;;;;;;7.43;3.97;;;;;;;;;;1461955;40;20425;-82
2021/05/25 04:27:48;;;;;;;6.97;3.53;;;;;;;;;;1459221;40;20403;-82
2021/05/25 04:28:49;;;;;;;7.30;4.38;;;;;;;;;;1461644;40;20710;-84
2021/05/25 04:29:52;;;;;;;7.25;3.90;;;;;;;;;;1457599;40;20414;-85
2021/05/25 04:30:55;;;;;;;8.98;3.55;;;;;;;;;;1457541;40;20437;-82
2021/05/25 04:31:56;;;;;;;7.20;3.92;;;;;;;;;;1453058;40;20412;-83
2021/05/25 04:32:58;;;;;;;5.60;3.30;;;;;;;;;;1457818;40;20481;-82
2021/05/25 04:34:00;;;;;;;6.30;3.55;;;;;;;;;;1457456;40;20454;-82
2021/05/25 04:35:03;;;;;;;8.02;3.35;;;;;;;;;;1453772;40;20498;-80
2021/05/25 04:36:05;;;;;;;5.95;3.08;;;;;;;;;;1456911;40;20454;-82
2021/05/25 04:37:08;;;;;;;7.68;3.38;;;;;;;;;;1453585;40;20438;-82
2021/05/25 04:38:10;;;;;;;7.05;3.88;;;;;;;;;;1453945;40;20455;-82
2021/05/25 04:39:12;;;;;;;7.90;3.35;;;;;;;;;;1461722;40;20432;-83
2021/05/25 04:40:14;;;;;;;8.57;3.45;;;;;;;;;;1453172;40;20428;-81
2021/05/25 04:41:17;;;;;;;6.22;3.30;;;;;;;;;;1458008;40;20510;-82
2021/05/25 04:42:18;;;;;;;5.15;3.35;;;;;;;;;;1461692;40;20424;-82
2021/05/25 04:43:20;;;;;;;4.03;3.17;;;;;;;;;;1456110;40;20418;-82
2021/05/25 04:44:22;;;;;;;4.20;3.03;;;;;;;;;;1462772;40;20600;-82
2021/05/25 04:45:24;;;;;;;5.00;3.17;;;;;;;;;;1457634;40;20423;-81
2021/05/25 04:46:28;;;;;;;3.88;2.83;;;;;;;;;;1453962;40;20679;-82
2021/05/25 04:47:30;;;;;;;4.72;2.83;;;;;;;;;;1462057;40;20424;-81
2021/05/25 04:48:32;;;;;;;4.70;2.92;;;;;;;;;;1457542;40;20519;-82
2021/05/25 04:49:39;;;;;;;6.85;2.95;;;;;;;;;;1457854;40;20860;-82
2021/05/25 04:50:42;;;;;;;5.40;3.05;;;;;;;;;;1453561;40;20435;-81
2021/05/25 04:51:43;;;;;;;3.67;2.50;;;;;;;;;;1454275;40;20460;-82
2021/05/25 04:52:47;;;;;;;4.85;2.60;;;;;;;;;;1453599;40;20444;-82
2021/05/25 04:53:49;;;;;;;4.80;2.45;;;;;;;;;;1454075;40;20452;-83
2021/05/25 04:54:51;;;;;;;4.35;2.50;;;;;;;;;;1457826;40;20406;-84
2021/05/25 04:55:52;;;;;;;3.72;2.70;;;;;;;;;;1453720;40;20419;-83
2021/05/25 04:56:55;;;;;;;4.90;2.55;;;;;;;;;;1452819;40;20821;-83
2021/05/25 04:57:56;;;;;;;2.58;2.35;;;;;;;;;;1465879;40;20411;-82
2021/05/25 04:58:58;;;;;;;3.17;2.28;;;;;;;;;;1461589;40;20425;-83
2021/05/25 05:00:00;;;;;;;6.43;2.38;;;;;;;;;;1457863;40;20434;-82
2021/05/25 05:01:02;;;;;;;6.80;2.35;;;;;;;;;;1457735;40;20422;-82
2021/05/25 05:02:03;;;;;;;5.20;2.92;;;;;;;;;;1449867;40;20414;-82
2021/05/25 05:03:06;;;;;;;7.00;2.17;;;;;;;;;;1461976;40;20405;-82
2021/05/25 05:04:07;;;;;;;3.45;2.25;;;;;;;;;;1457199;40;20438;-82
2021/05/25 05:05:10;;;;;;;3.17;2.08;;;;;;;;;;1453680;40;20695;-82
2021/05/25 05:06:11;;;;;;;5.07;2.63;;;;;;;;;;1461454;40;20925;-82
2021/05/25 05:07:13;;;;;;;4.65;2.53;;;;;;;;;;1457594;40;20434;-82
2021/05/25 05:08:14;;;;;;;3.35;2.10;;;;;;;;;;1453134;40;20454;-81
2021/05/25 05:09:16;;;;;;;3.30;2.00;;;;;;;;;;1452666;40;20424;-83
2021/05/25 05:10:18;;;;;;;5.88;2.58;;;;;;;;;;1457460;40;20422;-82
2021/05/25 05:11:20;;;;;;;3.80;2.00;;;;;;;;;;1453574;40;20842;-82
2021/05/25 05:12:22;;;;;;;4.00;1.80;;;;;;;;;;1453966;40;20405;-82
2021/05/25 05:13:24;;;;;;;4.43;2.15;;;;;;;;;;1465784;40;20428;-83
2021/05/25 05:14:25;;;;;;;4.25;1.88;;;;;;;;;;1461450;40;21075;-82
2021/05/25 05:15:27;;;;;;;4.43;1.75;;;;;;;;;;1461934;40;20433;-82
2021/05/25 05:16:29;;;;;;;2.90;1.88;;;;;;;;;;1462226;40;20409;-82
2021/05/25 05:17:31;;;;;;;5.07;2.28;;;;;;;;;;1458767;40;20445;-81
2021/05/25 05:18:33;;;;;;;4.35;2.10;;;;;;;;;;1456511;40;20425;-82
2021/05/25 05:19:35;;;;;;;2.78;1.88;;;;;;;;;;1458288;40;20432;-82
2021/05/25 05:20:38;;;;;;;4.63;1.90;;;;;;;;;;1470297;40;20416;-80
2021/05/25 05:21:39;;;;;;;3.10;2.08;;;;;;;;;;1464069;40;20429;-85
2021/05/25 05:22:41;;;;;;;6.78;2.60;;;;;;;;;;1467387;40;20417;-83
2021/05/25 05:23:43;;;;;;;4.07;1.88;;;;;;;;;;1470375;40;20419;-83
2021/05/25 05:24:45;;;;;;;3.03;2.00;;;;;;;;;;1464943;40;20416;-82
2021/05/25 05:25:47;;;;;;;3.95;2.30;;;;;;;;;;1464102;40;20419;-82
2021/05/25 05:26:49;;;;;;;4.13;1.83;;;;;;;;;;1455540;40;20796;-82
2021/05/25 05:27:50;;;;;;;6.10;1.77;;;;;;;;;;1454565;40;20699;-84
2021/05/25 05:28:53;;;;;;;4.95;1.83;;;;;;;;;;1462872;40;20397;-82
2021/05/25 05:29:55;;;;;;;5.80;2.20;;;;;;;;;;1458472;40;20729;-82
2021/05/25 05:30:56;;;;;;;5.18;2.10;;;;;;;;;;1458626;40;20482;-81
2021/05/25 05:31:58;;;;;;;7.45;1.90;;;;;;;;;;1465901;40;20431;-82
2021/05/25 05:33:00;;;;;;;6.85;2.80;;;;;;;;;;1461885;40;20445;-81
2021/05/25 05:34:02;;;;;;;6.15;1.95;;;;;;;;;;1460551;40;20982;-81
2021/05/25 05:35:05;;;;;;;6.65;2.17;;;;;;;;;;1465794;40;20817;-81
2021/05/25 05:36:08;;;;;;;5.95;2.55;;;;;;;;;;1461945;40;20430;-82
2021/05/25 05:37:10;;;;;;;6.43;2.60;;;;;;;;;;1461805;40;20436;-81
2021/05/25 05:38:12;;;;;;;8.02;2.35;;;;;;;;;;1454278;40;20698;-83
2021/05/25 05:39:14;;;;;;;12.00;2.85;;;;;;;;;;1454507;40;20431;-81
2021/05/25 05:40:16;;;;;;;6.40;2.00;;;;;;;;;;1462141;40;21081;-81
2021/05/25 05:41:38;;;;;;;8.65;2.60;;;;;;;;;;1462650;40;20417;-81
2021/05/25 05:42:41;;;;;;;6.57;2.53;;;;;;;;;;1457896;40;20415;-82
2021/05/25 05:43:43;;;;;;;10.73;2.40;;;;;;;;;;1458451;40;20419;-82
2021/05/25 05:44:45;;;;;;;11.95;2.65;;;;;;;;;;1457128;40;20503;-82
2021/05/25 05:45:46;;;;;;;9.60;2.30;;;;;;;;;;1458104;40;20485;-81
2021/05/25 05:46:48;;;;;;;5.40;2.08;;;;;;;;;;1465437;40;20466;-81
2021/05/25 05:47:50;;;;;;;9.00;2.60;;;;;;;;;;1462052;40;20425;-82
2021/05/25 05:48:52;;;;;;;6.18;2.40;;;;;;;;;;1458048;40;20415;-83
2021/05/25 05:50:09;;;;;;;11.48;2.80;;;;;;;;;;1462179;40;20409;-82
2021/05/25 05:51:12;;;;;;;13.30;2.72;;;;;;;;;;1458951;40;20406;-81
2021/05/25 05:52:13;;;;;;;8.88;2.40;;;;;;;;;;1458122;40;20423;-82
2021/05/25 05:53:15;;;;;;;8.95;2.38;;;;;;;;;;1462448;40;20417;-81
2021/05/25 05:54:17;;;;;;;8.90;2.20;;;;;;;;;;1455032;40;20446;-81
2021/05/25 05:55:19;;;;;;;9.05;2.65;;;;;;;;;;1462327;40;20414;-82
2021/05/25 05:56:21;;;;;;;9.85;2.80;;;;;;;;;;1461438;40;20423;-81
2021/05/25 05:57:23;;;;;;;15.98;2.55;;;;;;;;;;1457247;40;20422;-81
2021/05/25 05:58:24;;;;;;;8.57;2.92;;;;;;;;;;1462690;40;20401;-81
2021/05/25 05:59:26;;;;;;;10.35;2.50;;;;;;;;;;1461792;40;20409;-82
2021/05/25 06:00:28;;;;;;;7.90;2.22;;;;;;;;;;1462680;40;20408;-81
2021/05/25 06:01:30;;;;;;;7.97;2.00;;;;;;;;;;1462396;40;20428;-81
2021/05/25 06:02:31;;;;;;;10.85;2.65;;;;;;;;;;1466133;40;21124;-82
2021/05/25 06:03:33;;;;;;;10.43;1.52;;;;;;;;;;1461361;40;20480;-82
2021/05/25 06:04:35;;;;;;;8.33;1.80;;;;;;;;;;1458125;40;20957;-82
2021/05/25 06:05:38;;;;;;;10.18;2.03;;;;;;;;;;1457936;40;20445;-81
2021/05/25 06:06:39;;;;;;;5.85;1.67;;;;;;;;;;1458026;40;20467;-82
2021/05/25 06:07:41;;;;;;;8.18;1.63;;;;;;;;;;1457865;40;20410;-82
2021/05/25 06:08:43;;;;;;;10.18;1.63;;;;;;;;;;1457331;40;20442;-82
2021/05/25 06:09:46;;;;;;;6.80;2.05;;;;;;;;;;1457798;40;20415;-81
2021/05/25 06:10:51;;;;;;;9.27;2.42;;;;;;;;;;1458377;40;20672;-82
2021/05/25 06:11:53;;;;;;;10.80;2.40;;;;;;;;;;1460042;40;20409;-83
2021/05/25 06:12:55;;;;;;;6.05;1.60;;;;;;;;;;1462792;40;20420;-84
2021/05/25 06:13:58;;;;;;;10.20;1.90;;;;;;;;;;1462243;40;20405;-84
2021/05/25 06:15:00;;;;;;;9.48;1.83;;;;;;;;;;1462184;40;20432;-82
2021/05/25 06:16:02;;;;;;;7.57;1.50;;;;;;;;;;1462208;40;20423;-82
2021/05/25 06:17:04;;;;;;;9.30;1.70;;;;;;;;;;1458044;40;20451;-82